^^
Saratoga-Weather Station Historical Data
Daily Summary for September 11, 2021 Units:  English    Metric   Both
Daily Weekly Monthly Yearly Custom
  High: Low: Average:
Temperature: 35.2 °F 22.6 °F 29.3 °F
Dew Point: 32 °F 21.2 °F 26.2 °F
Humidity: 96% 78% 89%
Wind Speed: 6.9mph 0mph 0.9mph
Wind Gust: 10mph - -
Wind- - SW
Pressure: 30.3 in 30.1 in -
Precipitation: 0 in    
Historical Graphs
 
 
Tabular Data for September 11, 2021
Time Temperature Dew Point Pressure Wind Wind Speed Wind Gust Humidity Rainfall Rate (Hourly) solar
00:03 26.1 °F 24.3 °F 30.2 in Calm     93% 0 in 0 W/m2
00:08 25.9 °F 24.1 °F 30.2 in Calm     93% 0 in 0 W/m2
00:13 25.9 °F 23.9 °F 30.2 in Calm     92% 0 in 0 W/m2
00:18 25.7 °F 23.7 °F 30.2 in Calm     92% 0 in 0 W/m2
00:23 25.5 °F 23.5 °F 30.2 in Calm     92% 0 in 0 W/m2
00:28 25.5 °F 23.7 °F 30.2 in Calm     93% 0 in 0 W/m2
00:33 25.5 °F 23.7 °F 30.2 in Calm     93% 0 in 0 W/m2
00:38 25.5 °F 23.7 °F 30.2 in Calm     93% 0 in 0 W/m2
00:43 25.5 °F 23.7 °F 30.2 in Calm     93% 0 in 0 W/m2
00:48 25.5 °F 23.7 °F 30.2 in Calm     93% 0 in 0 W/m2
00:53 25.3 °F 23.5 °F 30.2 in Calm     93% 0 in 0 W/m2
00:58 25.3 °F 23.5 °F 30.2 in Calm     93% 0 in 0 W/m2
01:03 25.2 °F 23.4 °F 30.2 in Calm     93% 0 in 0 W/m2
01:08 25 °F 23.2 °F 30.2 in Calm     93% 0 in 0 W/m2
01:13 25 °F 23.2 °F 30.2 in Calm     93% 0 in 0 W/m2
01:18 24.8 °F 23 °F 30.2 in Calm     93% 0 in 0 W/m2
01:23 24.8 °F 23 °F 30.2 in Calm     93% 0 in 0 W/m2
01:28 24.6 °F 22.8 °F 30.2 in Calm     93% 0 in 0 W/m2
01:33 24.6 °F 22.8 °F 30.2 in Calm     93% 0 in 0 W/m2
01:38 24.6 °F 22.8 °F 30.2 in Calm   1 mph 93% 0 in 0 W/m2
01:43 24.8 °F 23.4 °F 30.2 in Calm   1 mph 94% 0 in 0 W/m2
01:48 24.8 °F 23.4 °F 30.2 in Calm     94% 0 in 0 W/m2
01:53 24.6 °F 22.8 °F 30.2 in Calm     93% 0 in 0 W/m2
01:58 24.6 °F 22.8 °F 30.2 in Calm     93% 0 in 0 W/m2
02:03 24.4 °F 22.6 °F 30.2 in Calm     93% 0 in 0 W/m2
02:08 24.3 °F 22.5 °F 30.2 in Calm     93% 0 in 0 W/m2
02:13 24.3 °F 22.5 °F 30.2 in Calm     93% 0 in 0 W/m2
02:18 24.3 °F 22.5 °F 30.2 in Calm     93% 0 in 0 W/m2
02:23 24.3 °F 22.8 °F 30.2 in Calm     94% 0 in 0 W/m2
02:28 24.1 °F 22.6 °F 30.2 in Calm     94% 0 in 0 W/m2
02:33 24.1 °F 22.6 °F 30.2 in Calm     94% 0 in 0 W/m2
02:38 24.1 °F 22.6 °F 30.2 in Calm     94% 0 in 0 W/m2
02:43 24.1 °F 22.6 °F 30.2 in Calm     94% 0 in 0 W/m2
02:48 24.3 °F 22.8 °F 30.2 in Calm     94% 0 in 0 W/m2
02:53 24.1 °F 22.6 °F 30.2 in Calm     94% 0 in 0 W/m2
02:58 24.1 °F 22.6 °F 30.2 in Calm     94% 0 in 0 W/m2
03:03 24.1 °F 22.6 °F 30.2 in Calm     94% 0 in 0 W/m2
03:08 24.1 °F 22.6 °F 30.2 in SE 2 mph 2 mph 94% 0 in 0 W/m2
03:13 24.3 °F 22.8 °F 30.2 in SE 0.9 mph 1 mph 94% 0 in 0 W/m2
03:18 24.4 °F 23 °F 30.2 in Calm     94% 0 in 0 W/m2
03:23 24.4 °F 23.2 °F 30.2 in Calm     95% 0 in 0 W/m2
03:28 24.4 °F 23 °F 30.2 in Calm   1 mph 94% 0 in 0 W/m2
03:33 24.4 °F 23 °F 30.2 in Calm     94% 0 in 0 W/m2
03:38 24.3 °F 22.8 °F 30.2 in Calm   1 mph 94% 0 in 0 W/m2
03:44 24.3 °F 22.8 °F 30.2 in Calm     94% 0 in 0 W/m2
03:49 24.3 °F 22.8 °F 30.2 in Calm     94% 0 in 0 W/m2
03:54 24.1 °F 22.6 °F 30.2 in Calm     94% 0 in 0 W/m2
03:59 24.1 °F 22.6 °F 30.2 in Calm     94% 0 in 0 W/m2
04:04 24.1 °F 22.6 °F 30.2 in Calm     94% 0 in 0 W/m2
04:09 24.1 °F 22.6 °F 30.2 in Calm     94% 0 in 0 W/m2
04:14 23.9 °F 22.5 °F 30.2 in Calm     94% 0 in 0 W/m2
04:19 23.7 °F 22.3 °F 30.2 in Calm     94% 0 in 0 W/m2
04:24 23.7 °F 22.3 °F 30.2 in Calm     94% 0 in 0 W/m2
04:29 23.7 °F 22.3 °F 30.2 in Calm     94% 0 in 0 W/m2
04:34 23.7 °F 22.3 °F 30.2 in Calm     94% 0 in 0 W/m2
04:39 23.5 °F 22.1 °F 30.2 in Calm     94% 0 in 0 W/m2
04:44 23.5 °F 22.1 °F 30.2 in Calm     94% 0 in 0 W/m2
04:49 23.5 °F 22.1 °F 30.2 in Calm     94% 0 in 0 W/m2
04:54 23.4 °F 21.9 °F 30.2 in Calm     94% 0 in 0 W/m2
04:59 23.4 °F 21.9 °F 30.2 in Calm     94% 0 in 0 W/m2
05:04 23.4 °F 21.9 °F 30.2 in Calm     94% 0 in 0 W/m2
05:09 23.4 °F 21.9 °F 30.2 in Calm     94% 0 in 0 W/m2
05:14 23.2 °F 21.7 °F 30.2 in Calm     94% 0 in 0 W/m2
05:19 23.4 °F 21.9 °F 30.2 in Calm     94% 0 in 0 W/m2
05:24 23.4 °F 21.9 °F 30.2 in Calm     94% 0 in 0 W/m2
05:29 23.4 °F 21.9 °F 30.2 in Calm     94% 0 in 0 W/m2
05:34 23.4 °F 22.1 °F 30.2 in Calm     95% 0 in 0 W/m2
05:39 23.4 °F 22.1 °F 30.2 in Calm     95% 0 in 0 W/m2
05:44 23.4 °F 22.1 °F 30.2 in Calm     95% 0 in 0 W/m2
05:49 23.4 °F 22.1 °F 30.2 in Calm     95% 0 in 0 W/m2
05:54 23.2 °F 21.7 °F 30.2 in Calm     94% 0 in 0 W/m2
05:59 23.2 °F 21.7 °F 30.2 in Calm     94% 0 in 0 W/m2
06:04 23 °F 21.6 °F 30.2 in Calm     94% 0 in 0 W/m2
06:09 22.8 °F 21.4 °F 30.2 in Calm     94% 0 in 0 W/m2
06:14 22.8 °F 21.4 °F 30.2 in Calm     94% 0 in 0 W/m2
06:19 22.6 °F 21.2 °F 30.2 in Calm     94% 0 in 0 W/m2
06:24 22.6 °F 21.2 °F 30.2 in Calm     94% 0 in 0 W/m2
06:29 22.6 °F 21.2 °F 30.2 in Calm     94% 0 in 0 W/m2
06:34 22.6 °F 21.4 °F 30.2 in Calm     95% 0 in 0 W/m2
06:39 22.6 °F 21.4 °F 30.2 in Calm     95% 0 in 0 W/m2
06:44 22.6 °F 21.4 °F 30.2 in Calm     95% 0 in 0 W/m2
06:49 22.6 °F 21.4 °F 30.2 in Calm     95% 0 in 0 W/m2
06:54 22.8 °F 21.6 °F 30.2 in Calm     95% 0 in 0 W/m2
06:59 22.8 °F 21.6 °F 30.2 in Calm     95% 0 in 0 W/m2
07:04 22.8 °F 21.6 °F 30.2 in Calm     95% 0 in 0 W/m2
07:09 22.8 °F 21.6 °F 30.2 in Calm     95% 0 in 0 W/m2
07:14 22.8 °F 21.6 °F 30.2 in Calm     95% 0 in 0 W/m2
07:19 22.8 °F 21.6 °F 30.2 in Calm     95% 0 in 0 W/m2
07:24 22.8 °F 21.6 °F 30.2 in Calm     95% 0 in 0 W/m2
07:29 22.8 °F 21.6 °F 30.2 in Calm     95% 0 in 0 W/m2
07:34 22.8 °F 21.6 °F 30.2 in Calm     95% 0 in 0 W/m2
07:39 22.8 °F 21.6 °F 30.2 in Calm     95% 0 in 0 W/m2
07:44 22.8 °F 21.6 °F 30.2 in Calm     95% 0 in 0 W/m2
07:49 22.8 °F 21.6 °F 30.2 in Calm     95% 0 in 0 W/m2
07:54 22.8 °F 21.6 °F 30.2 in Calm     95% 0 in 0 W/m2
07:59 22.8 °F 21.6 °F 30.2 in Calm     95% 0 in 0 W/m2
08:04 22.8 °F 21.6 °F 30.2 in Calm     95% 0 in 0 W/m2
08:09 22.8 °F 21.6 °F 30.2 in Calm     95% 0 in 0 W/m2
08:14 22.8 °F 21.6 °F 30.2 in Calm     95% 0 in 0 W/m2
08:19 22.6 °F 21.4 °F 30.2 in Calm     95% 0 in 0 W/m2
08:24 22.6 °F 21.4 °F 30.2 in Calm     95% 0 in 0 W/m2
08:29 22.6 °F 21.4 °F 30.2 in Calm     95% 0 in 0 W/m2
08:34 22.6 °F 21.4 °F 30.2 in Calm     95% 0 in 5 W/m2
08:39 22.6 °F 21.4 °F 30.2 in Calm     95% 0 in 7 W/m2
08:44 22.6 °F 21.4 °F 30.2 in Calm     95% 0 in 7 W/m2
08:49 22.6 °F 21.4 °F 30.2 in Calm     95% 0 in 9 W/m2
08:54 22.6 °F 21.4 °F 30.2 in Calm     95% 0 in 11 W/m2
08:59 22.8 °F 21.6 °F 30.2 in SE 0.9 mph 2 mph 95% 0 in 12 W/m2
09:04 23 °F 21.7 °F 30.2 in Calm     95% 0 in 12 W/m2
09:09 23.2 °F 21.9 °F 30.2 in Calm   2 mph 95% 0 in 14 W/m2
09:14 23.2 °F 21.9 °F 30.2 in SE 0.9 mph 1 mph 95% 0 in 14 W/m2
09:19 23.4 °F 22.1 °F 30.2 in Calm   1 mph 95% 0 in 16 W/m2
09:24 23.4 °F 22.1 °F 30.2 in Calm     95% 0 in 16 W/m2
09:29 23.4 °F 22.1 °F 30.2 in Calm     95% 0 in 16 W/m2
09:34 23.4 °F 22.1 °F 30.2 in Calm     95% 0 in 18 W/m2
09:39 23.5 °F 22.3 °F 30.2 in Calm     95% 0 in 18 W/m2
09:44 23.5 °F 22.3 °F 30.2 in Calm   1 mph 95% 0 in 19 W/m2
09:49 23.7 °F 22.5 °F 30.2 in Calm     95% 0 in 18 W/m2
09:54 23.7 °F 22.5 °F 30.2 in Calm   1 mph 95% 0 in 19 W/m2
09:59 24.1 °F 22.8 °F 30.2 in Calm     95% 0 in 21 W/m2
10:04 24.4 °F 23.5 °F 30.2 in ESE 2.9 mph 3 mph 96% 0 in 23 W/m2
10:09 25 °F 24.1 °F 30.2 in ESE 0.9 mph 2 mph 96% 0 in 21 W/m2
10:14 25.3 °F 24.4 °F 30.2 in ESE 2 mph 3 mph 96% 0 in 21 W/m2
10:19 25.7 °F 24.8 °F 30.2 in ESE 2 mph 2 mph 96% 0 in 23 W/m2
10:24 25.9 °F 25 °F 30.2 in Calm     96% 0 in 25 W/m2
10:29 26.1 °F 25.2 °F 30.2 in Calm     96% 0 in 26 W/m2
10:34 26.1 °F 24.8 °F 30.2 in ESE 2 mph 4 mph 95% 0 in 30 W/m2
10:39 26.2 °F 25 °F 30.2 in ESE 2 mph 3 mph 95% 0 in 26 W/m2
10:44 26.6 °F 25.3 °F 30.2 in ESE 0.9 mph 4 mph 95% 0 in 28 W/m2
10:49 26.8 °F 25.5 °F 30.2 in ESE 0.9 mph 2 mph 95% 0 in 28 W/m2
10:54 27 °F 25.7 °F 30.3 in ESE 0.9 mph 1 mph 95% 0 in 28 W/m2
10:59 27 °F 25.7 °F 30.3 in Calm     95% 0 in 26 W/m2
11:04 27.1 °F 25.9 °F 30.2 in Calm     95% 0 in 25 W/m2
11:09 27.3 °F 26.1 °F 30.2 in Calm   1 mph 95% 0 in 25 W/m2
11:14 27.3 °F 26.1 °F 30.2 in Calm   1 mph 95% 0 in 25 W/m2
11:19 27.7 °F 26.4 °F 30.2 in ESE 2 mph 3 mph 95% 0 in 26 W/m2
11:24 28 °F 26.8 °F 30.2 in Calm   2 mph 95% 0 in 25 W/m2
11:29 28.6 °F 27.3 °F 30.2 in SE 0.9 mph 2 mph 95% 0 in 25 W/m2
11:34 28.8 °F 27.5 °F 30.2 in ENE 0.9 mph 1 mph 95% 0 in 25 W/m2
11:39 29.1 °F 27.9 °F 30.2 in Calm   2 mph 95% 0 in 28 W/m2
11:44 29.5 °F 28 °F 30.2 in Calm   2 mph 94% 0 in 26 W/m2
11:49 29.7 °F 28.2 °F 30.2 in Calm     94% 0 in 28 W/m2
11:54 29.7 °F 27.9 °F 30.2 in Calm     93% 0 in 26 W/m2
11:59 29.7 °F 27.9 °F 30.2 in Calm   2 mph 93% 0 in 26 W/m2
12:04 29.8 °F 28 °F 30.2 in Calm   2 mph 93% 0 in 25 W/m2
12:09 30 °F 28.2 °F 30.2 in Calm   1 mph 93% 0 in 25 W/m2
12:14 30.2 °F 28.4 °F 30.2 in ESE 0.9 mph 2 mph 93% 0 in 25 W/m2
12:19 30.4 °F 28.6 °F 30.2 in West 2 mph 2 mph 93% 0 in 25 W/m2
12:24 30.7 °F 28.8 °F 30.2 in West 2.9 mph 3 mph 92% 0 in 25 W/m2
12:29 31.5 °F 28.9 °F 30.2 in WSW 2 mph 4 mph 90% 0 in 25 W/m2
12:35 31.8 °F 28.8 °F 30.2 in WSW 2 mph 4 mph 88% 0 in 25 W/m2
12:40 32.5 °F 28.6 °F 30.2 in WNW 2 mph 3 mph 85% 0 in 25 W/m2
12:45 32.7 °F 28.4 °F 30.2 in West 2.9 mph 4 mph 84% 0 in 25 W/m2
12:50 33.1 °F 28.4 °F 30.2 in NNW 4 mph 6 mph 83% 0 in 25 W/m2
12:55 33.3 °F 28.4 °F 30.2 in West 0.9 mph 4 mph 82% 0 in 25 W/m2
13:00 33.3 °F 28.4 °F 30.2 in WNW 2.9 mph 4 mph 82% 0 in 26 W/m2
13:05 33.4 °F 28.6 °F 30.2 in West 2.9 mph 4 mph 82% 0 in 26 W/m2
13:10 33.4 °F 28.2 °F 30.2 in WNW 4 mph 4 mph 81% 0 in 26 W/m2
13:15 33.6 °F 28.4 °F 30.2 in WNW 0.9 mph 5 mph 81% 0 in 26 W/m2
13:20 33.6 °F 28.4 °F 30.2 in WNW 2 mph 3 mph 81% 0 in 26 W/m2
13:25 33.6 °F 28 °F 30.2 in SW 2.9 mph 4 mph 80% 0 in 28 W/m2
13:30 33.6 °F 28 °F 30.2 in SW 2 mph 3 mph 80% 0 in 26 W/m2
13:35 33.8 °F 28.2 °F 30.2 in West 2 mph 4 mph 80% 0 in 26 W/m2
13:40 33.8 °F 28.2 °F 30.2 in West 2 mph 6 mph 80% 0 in 26 W/m2
13:45 34 °F 28.4 °F 30.2 in West 2.9 mph 3 mph 80% 0 in 28 W/m2
13:50 34 °F 28.8 °F 30.2 in WNW 4 mph 4 mph 81% 0 in 28 W/m2
13:55 34.2 °F 28.6 °F 30.2 in WSW 2 mph 4 mph 80% 0 in 28 W/m2
14:00 34.2 °F 28.6 °F 30.2 in West 0.9 mph 3 mph 80% 0 in 32 W/m2
14:05 34.2 °F 28.6 °F 30.2 in WNW 0.9 mph 3 mph 80% 0 in 28 W/m2
14:10 34.2 °F 28.9 °F 30.2 in WNW 2.9 mph 7 mph 81% 0 in 28 W/m2
14:15 34.2 °F 28.9 °F 30.2 in Calm   3 mph 81% 0 in 26 W/m2
14:20 34.2 °F 28.9 °F 30.2 in Calm   1 mph 81% 0 in 26 W/m2
14:25 34.2 °F 28.9 °F 30.2 in West 0.9 mph 3 mph 81% 0 in 26 W/m2
14:30 34.2 °F 28.9 °F 30.2 in Calm   1 mph 81% 0 in 25 W/m2
14:35 34 °F 28.8 °F 30.2 in Calm   3 mph 81% 0 in 25 W/m2
14:40 34 °F 29.1 °F 30.2 in WNW 2 mph 3 mph 82% 0 in 32 W/m2
14:45 34 °F 29.1 °F 30.2 in West 2 mph 4 mph 82% 0 in 33 W/m2
14:50 34.2 °F 29.3 °F 30.2 in West 0.9 mph 3 mph 82% 0 in 35 W/m2
14:55 34.2 °F 28.9 °F 30.2 in West 0.9 mph 2 mph 81% 0 in 25 W/m2
15:00 34 °F 29.1 °F 30.2 in Calm     82% 0 in 25 W/m2
15:05 33.8 °F 28.9 °F 30.2 in NNW 2.9 mph 3 mph 82% 0 in 23 W/m2
15:10 34 °F 29.1 °F 30.2 in Calm   1 mph 82% 0 in 32 W/m2
15:15 34.2 °F 28.9 °F 30.2 in WNW 2 mph 3 mph 81% 0 in 74 W/m2
15:20 34.3 °F 28.8 °F 30.2 in Calm     80% 0 in 63 W/m2
15:25 34.5 °F 28.9 °F 30.2 in NW 4 mph 4 mph 80% 0 in 33 W/m2
15:30 34.5 °F 28.8 °F 30.2 in NW 2.9 mph 4 mph 79% 0 in 37 W/m2
15:35 34.9 °F 29.1 °F 30.2 in Calm   3 mph 79% 0 in 51 W/m2
15:40 34.9 °F 29.1 °F 30.2 in WNW 2.9 mph 4 mph 79% 0 in 40 W/m2
15:45 34.9 °F 28.8 °F 30.2 in Calm   2 mph 78% 0 in 51 W/m2
15:50 34.9 °F 28.8 °F 30.2 in WNW 0.9 mph 4 mph 78% 0 in 47 W/m2
15:55 34.9 °F 28.8 °F 30.2 in WNW 4 mph 4 mph 78% 0 in 39 W/m2
16:00 34.9 °F 28.8 °F 30.2 in Calm   3 mph 78% 0 in 37 W/m2
16:05 35.1 °F 28.9 °F 30.2 in Calm   2 mph 78% 0 in 32 W/m2
16:10 35.1 °F 29.1 °F 30.2 in Calm   3 mph 79% 0 in 30 W/m2
16:15 34.9 °F 29.1 °F 30.2 in Calm     79% 0 in 25 W/m2
16:20 34.9 °F 29.1 °F 30.2 in Calm   3 mph 79% 0 in 21 W/m2
16:25 34.9 °F 28.8 °F 30.2 in WSW 0.9 mph 4 mph 78% 0 in 16 W/m2
16:30 34.9 °F 29.1 °F 30.2 in NW 2.9 mph 3 mph 79% 0 in 12 W/m2
16:35 34.9 °F 29.1 °F 30.2 in NNW 0.9 mph 3 mph 79% 0 in 11 W/m2
16:40 34.9 °F 29.1 °F 30.2 in NE 0.9 mph 2 mph 79% 0 in 7 W/m2
16:45 34.9 °F 29.1 °F 30.2 in Calm   1 mph 79% 0 in 5 W/m2
16:50 34.9 °F 29.1 °F 30.2 in NE 2 mph 3 mph 79% 0 in 5 W/m2
16:55 34.9 °F 29.1 °F 30.2 in NNE 0.9 mph 2 mph 79% 0 in 0 W/m2
17:00 34.9 °F 29.1 °F 30.2 in ENE 0.9 mph 2 mph 79% 0 in 0 W/m2
17:05 34.9 °F 29.1 °F 30.2 in Calm   2 mph 79% 0 in 0 W/m2
17:10 34.7 °F 28.9 °F 30.2 in Calm   1 mph 79% 0 in 0 W/m2
17:16 34.5 °F 28.9 °F 30.2 in Calm   2 mph 80% 0 in 0 W/m2
17:21 34.5 °F 28.9 °F 30.2 in WNW 0.9 mph 4 mph 80% 0 in 0 W/m2
17:26 34.5 °F 28.9 °F 30.2 in Calm   1 mph 80% 0 in 0 W/m2
17:31 34.7 °F 29.1 °F 30.2 in NW 0.9 mph 4 mph 80% 0 in 0 W/m2
17:36 34.5 °F 28.9 °F 30.2 in WNW 0.9 mph 3 mph 80% 0 in 0 W/m2
17:41 34.7 °F 29.1 °F 30.2 in Calm   6 mph 80% 0 in 0 W/m2
17:46 34.7 °F 29.1 °F 30.2 in NNW 0.9 mph 3 mph 80% 0 in 0 W/m2
17:51 34.9 °F 29.3 °F 30.2 in NE 0.9 mph 6 mph 80% 0 in 0 W/m2
17:56 34.9 °F 29.3 °F 30.2 in Calm   6 mph 80% 0 in 0 W/m2
18:01 34.9 °F 29.3 °F 30.2 in WNW 0.9 mph 2 mph 80% 0 in 0 W/m2
18:06 34.9 °F 29.3 °F 30.2 in Calm   2 mph 80% 0 in 0 W/m2
18:11 34.9 °F 29.3 °F 30.1 in Calm   1 mph 80% 0 in 0 W/m2
18:16 34.9 °F 29.3 °F 30.1 in Calm   2 mph 80% 0 in 0 W/m2
18:21 34.9 °F 29.1 °F 30.2 in Calm   2 mph 79% 0 in 0 W/m2
18:26 34.9 °F 29.3 °F 30.1 in Calm   2 mph 80% 0 in 0 W/m2
18:31 34.9 °F 29.3 °F 30.1 in Calm   2 mph 80% 0 in 0 W/m2
18:36 34.9 °F 29.3 °F 30.1 in East 2 mph 2 mph 80% 0 in 0 W/m2
18:41 34.9 °F 29.3 °F 30.1 in ENE 0.9 mph 7 mph 80% 0 in 0 W/m2
18:46 34.9 °F 29.3 °F 30.1 in SW 0.9 mph 4 mph 80% 0 in 0 W/m2
18:51 34.9 °F 29.7 °F 30.1 in North 2 mph 7 mph 81% 0 in 0 W/m2
18:56 34.5 °F 29.3 °F 30.1 in Calm   1 mph 81% 0 in 0 W/m2
19:01 34.5 °F 29.7 °F 30.1 in SW 6.9 mph 8 mph 82% 0 in 0 W/m2
19:06 34.5 °F 29.7 °F 30.1 in WNW 2.9 mph 3 mph 82% 0 in 0 W/m2
19:11 34.3 °F 29.5 °F 30.1 in ENE 0.9 mph 3 mph 82% 0 in 0 W/m2
19:16 34.3 °F 29.7 °F 30.1 in West 0.9 mph 7 mph 83% 0 in 0 W/m2
19:21 34.2 °F 29.8 °F 30.1 in NNW 2 mph 3 mph 84% 0 in 0 W/m2
19:26 34.2 °F 29.8 °F 30.1 in NW 2.9 mph 3 mph 84% 0 in 0 W/m2
19:31 34.2 °F 30.2 °F 30.1 in NW 2.9 mph 4 mph 85% 0 in 0 W/m2
19:36 34.2 °F 30.2 °F 30.1 in West 2 mph 4 mph 85% 0 in 0 W/m2
19:41 34.2 °F 30.2 °F 30.1 in WNW 2.9 mph 4 mph 85% 0 in 0 W/m2
19:46 34.2 °F 30.4 °F 30.1 in NE 0.9 mph 3 mph 86% 0 in 0 W/m2
19:51 34.2 °F 30.4 °F 30.1 in WNW 2.9 mph 4 mph 86% 0 in 0 W/m2
19:56 34.2 °F 30.4 °F 30.1 in WSW 0.9 mph 3 mph 86% 0 in 0 W/m2
20:01 34.2 °F 30.4 °F 30.1 in North 2 mph 3 mph 86% 0 in 0 W/m2
20:06 34.2 °F 30.4 °F 30.1 in West 0.9 mph 4 mph 86% 0 in 0 W/m2
20:11 34.2 °F 30.4 °F 30.1 in West 0.9 mph 3 mph 86% 0 in 0 W/m2
20:16 34 °F 30.2 °F 30.1 in East 2.9 mph 3 mph 86% 0 in 0 W/m2
20:21 34 °F 30.6 °F 30.1 in WSW 2.9 mph 4 mph 87% 0 in 0 W/m2
20:26 34 °F 30.6 °F 30.1 in Calm   2 mph 87% 0 in 0 W/m2
20:31 34 °F 30.6 °F 30.1 in NW 2 mph 2 mph 87% 0 in 0 W/m2
20:36 34 °F 30.6 °F 30.1 in WNW 0.9 mph 3 mph 87% 0 in 0 W/m2
20:41 34 °F 30.6 °F 30.1 in Calm   3 mph 87% 0 in 0 W/m2
20:46 34 °F 30.6 °F 30.1 in East 2 mph 5 mph 87% 0 in 0 W/m2
20:51 34 °F 30.7 °F 30.1 in North 0.9 mph 2 mph 88% 0 in 0 W/m2
20:57 34 °F 30.7 °F 30.1 in NW 2 mph 3 mph 88% 0 in 0 W/m2
21:02 34 °F 30.7 °F 30.1 in Calm   4 mph 88% 0 in 0 W/m2
21:07 34 °F 30.7 °F 30.1 in Calm   1 mph 88% 0 in 0 W/m2
21:12 34 °F 30.7 °F 30.1 in WSW 0.9 mph 2 mph 88% 0 in 0 W/m2
21:17 34 °F 30.7 °F 30.1 in NNW 2 mph 7 mph 88% 0 in 0 W/m2
21:22 34.2 °F 30.9 °F 30.1 in North 0.9 mph 4 mph 88% 0 in 0 W/m2
21:27 34.2 °F 30.9 °F 30.1 in West 0.9 mph 7 mph 88% 0 in 0 W/m2
21:32 34.2 °F 30.9 °F 30.1 in NNW 0.9 mph 6 mph 88% 0 in 0 W/m2
21:37 34.2 °F 30.9 °F 30.1 in SW 0.9 mph 3 mph 88% 0 in 0 W/m2
21:42 34.3 °F 31.1 °F 30.1 in WNW 0.9 mph 6 mph 88% 0 in 0 W/m2
21:47 34.3 °F 31.1 °F 30.1 in West 6.9 mph 9 mph 88% 0 in 0 W/m2
21:52 34.3 °F 31.1 °F 30.1 in North 2.9 mph 3 mph 88% 0 in 0 W/m2
21:57 34.3 °F 30.9 °F 30.1 in West 2 mph 9 mph 87% 0 in 0 W/m2
22:02 34.3 °F 31.1 °F 30.1 in NW 2 mph 7 mph 88% 0 in 0 W/m2
22:07 34.3 °F 31.1 °F 30.1 in NW 2.9 mph 4 mph 88% 0 in 0 W/m2
22:12 34.3 °F 31.1 °F 30.1 in NW 0.9 mph 5 mph 88% 0 in 0 W/m2
22:17 34.5 °F 31.3 °F 30.1 in North 2 mph 2 mph 88% 0 in 0 W/m2
22:22 34.5 °F 31.3 °F 30.1 in SSE 0.9 mph 5 mph 88% 0 in 0 W/m2
22:27 34.5 °F 31.3 °F 30.1 in East 2.9 mph 3 mph 88% 0 in 0 W/m2
22:32 34.5 °F 31.3 °F 30.1 in NW 4 mph 4 mph 88% 0 in 0 W/m2
22:37 34.5 °F 31.3 °F 30.1 in NW 0.9 mph 5 mph 88% 0 in 0 W/m2
22:42 34.5 °F 31.3 °F 30.1 in Calm   2 mph 88% 0 in 0 W/m2
22:47 34.5 °F 31.3 °F 30.1 in NNE 0.9 mph 2 mph 88% 0 in 0 W/m2
22:52 34.7 °F 31.5 °F 30.1 in WSW 0.9 mph 2 mph 88% 0 in 0 W/m2
22:57 34.7 °F 31.5 °F 30.1 in West 6.9 mph 7 mph 88% 0 in 0 W/m2
23:02 34.9 °F 31.6 °F 30.1 in NNE 0.9 mph 3 mph 88% 0 in 0 W/m2
23:07 34.9 °F 31.6 °F 30.1 in SW 6.9 mph 10 mph 88% 0 in 0 W/m2
23:12 34.9 °F 31.6 °F 30.1 in WNW 2 mph 6 mph 88% 0 in 0 W/m2
23:17 35.1 °F 31.8 °F 30.1 in Calm   4 mph 88% 0 in 0 W/m2
23:22 35.1 °F 31.8 °F 30.1 in West 0.9 mph 5 mph 88% 0 in 0 W/m2
23:27 35.1 °F 31.8 °F 30.1 in NW 0.9 mph 7 mph 88% 0 in 0 W/m2
23:32 35.1 °F 31.8 °F 30.1 in NNE 2 mph 4 mph 88% 0 in 0 W/m2
23:37 35.1 °F 31.8 °F 30.1 in East 6.9 mph 8 mph 88% 0 in 0 W/m2
23:42 35.2 °F 32 °F 30.1 in WNW 0.9 mph 5 mph 88% 0 in 0 W/m2
23:47 35.2 °F 32 °F 30.1 in North 2.9 mph 6 mph 88% 0 in 0 W/m2
23:52 35.2 °F 32 °F 30.1 in NW 0.9 mph 3 mph 88% 0 in 0 W/m2
23:57 35.2 °F 32 °F 30.1 in NNW 2 mph 9 mph 88% 0 in 0 W/m2
Juneau County Weather
Compliments of Weather Underground - 4 mb